Time;durP1;ratioP1;P1;durP2;ratioP2;P2;SDS_P1;SDS_P2;PMS_P1;PMS_P2;Temp;Humidity;BMP_temperature;BMP_pressure;BME280_temperature;BME280_humidity;BME280_pressure;Samples;Min_cycle;Max_cycle;Signal;HPM_P1;HPM_P2
2023/07/16 00:01:47;;;;;;;3.63;1.30;;;;;;;;;;5027198;28;20029;-77
2023/07/16 00:04:15;;;;;;;2.90;1.40;;;;;;;;;;5028356;28;20044;-76
2023/07/16 00:06:41;;;;;;;1.58;1.25;;;;;;;;;;5027395;28;20111;-76
2023/07/16 00:09:07;;;;;;;1.65;1.20;;;;;;;;;;5027145;28;20034;-76
2023/07/16 00:11:33;;;;;;;1.23;1.00;;;;;;;;;;5026378;28;20037;-77
2023/07/16 00:14:01;;;;;;;2.53;1.30;;;;;;;;;;5033706;28;20030;-77
2023/07/16 00:16:27;;;;;;;1.20;1.10;;;;;;;;;;5027839;28;20033;-77
2023/07/16 00:18:53;;;;;;;1.25;1.10;;;;;;;;;;5026815;28;20032;-77
2023/07/16 00:21:19;;;;;;;1.60;1.13;;;;;;;;;;5025999;28;20065;-77
2023/07/16 00:23:45;;;;;;;1.20;1.00;;;;;;;;;;5027320;28;20025;-77
2023/07/16 00:26:12;;;;;;;0.70;0.70;;;;;;;;;;5027983;28;20452;-77
2023/07/16 00:28:38;;;;;;;1.98;1.40;;;;;;;;;;5025587;28;20029;-77
2023/07/16 00:31:04;;;;;;;1.60;1.40;;;;;;;;;;5027646;28;20033;-76
2023/07/16 00:33:30;;;;;;;1.15;1.05;;;;;;;;;;5029105;28;20033;-77
2023/07/16 00:35:56;;;;;;;2.35;1.38;;;;;;;;;;5035104;28;20049;-77
2023/07/16 00:38:22;;;;;;;1.48;1.38;;;;;;;;;;5027428;28;20438;-76
2023/07/16 00:40:48;;;;;;;2.13;1.30;;;;;;;;;;5028154;28;20026;-77
2023/07/16 00:43:14;;;;;;;1.90;1.33;;;;;;;;;;5027948;28;20037;-77
2023/07/16 00:45:40;;;;;;;1.38;1.27;;;;;;;;;;5026161;28;20326;-77
2023/07/16 00:48:07;;;;;;;2.08;1.38;;;;;;;;;;5028180;28;20108;-76
2023/07/16 00:50:34;;;;;;;1.35;1.25;;;;;;;;;;5026860;28;20071;-77
2023/07/16 00:53:03;;;;;;;2.75;1.17;;;;;;;;;;5025401;28;20034;-77
2023/07/16 00:55:30;;;;;;;1.63;1.30;;;;;;;;;;5027117;28;20030;-76
2023/07/16 00:57:59;;;;;;;1.52;1.27;;;;;;;;;;5027563;28;20021;-76
2023/07/16 01:00:25;;;;;;;1.20;1.10;;;;;;;;;;5029760;28;20025;-77
2023/07/16 01:02:51;;;;;;;2.10;1.30;;;;;;;;;;5026977;28;20121;-76
2023/07/16 01:05:17;;;;;;;1.63;1.10;;;;;;;;;;5030948;28;20049;-76
2023/07/16 01:07:48;;;;;;;1.27;1.08;;;;;;;;;;5027247;28;20112;-77
2023/07/16 01:10:14;;;;;;;1.50;1.40;;;;;;;;;;5030103;28;20033;-77
2023/07/16 01:12:40;;;;;;;1.60;1.15;;;;;;;;;;5033065;28;20488;-76
2023/07/16 01:15:06;;;;;;;1.63;1.40;;;;;;;;;;5031041;28;20017;-77
2023/07/16 01:17:32;;;;;;;1.58;1.35;;;;;;;;;;5029987;28;20025;-77
2023/07/16 01:19:58;;;;;;;1.27;1.10;;;;;;;;;;5031515;28;20502;-77
2023/07/16 01:22:43;;;;;;;2.38;1.40;;;;;;;;;;5036284;28;20372;-77
2023/07/16 01:25:24;;;;;;;2.67;1.27;;;;;;;;;;5043279;28;20124;-76
2023/07/16 01:27:50;;;;;;;1.40;1.20;;;;;;;;;;5030460;28;20506;-77
2023/07/16 01:30:17;;;;;;;1.65;1.15;;;;;;;;;;5030797;28;20052;-76
2023/07/16 01:32:43;;;;;;;1.73;1.33;;;;;;;;;;5030409;28;20115;-77
2023/07/16 01:35:12;;;;;;;1.10;1.02;;;;;;;;;;5031302;28;20018;-77
2023/07/16 01:37:38;;;;;;;1.52;1.42;;;;;;;;;;5032452;28;20465;-77
2023/07/16 01:40:08;;;;;;;1.40;1.05;;;;;;;;;;5030007;28;20032;-78
2023/07/16 01:42:34;;;;;;;1.10;1.00;;;;;;;;;;5030446;28;20030;-76
2023/07/16 01:45:00;;;;;;;1.50;1.40;;;;;;;;;;5032973;28;20503;-76
2023/07/16 01:47:29;;;;;;;1.60;1.30;;;;;;;;;;5029497;28;20469;-76
2023/07/16 01:49:55;;;;;;;2.10;1.52;;;;;;;;;;5037806;28;20037;-76
2023/07/16 01:52:21;;;;;;;1.88;1.48;;;;;;;;;;5028660;28;20765;-76
2023/07/16 01:54:47;;;;;;;1.55;1.30;;;;;;;;;;5031176;28;20063;-76
2023/07/16 01:57:13;;;;;;;1.63;1.50;;;;;;;;;;5030236;28;20049;-76
2023/07/16 01:59:40;;;;;;;1.77;1.10;;;;;;;;;;5034222;28;20651;-77
2023/07/16 02:02:06;;;;;;;1.70;1.02;;;;;;;;;;5028684;28;20124;-77
2023/07/16 02:04:32;;;;;;;1.35;1.20;;;;;;;;;;5033308;28;20454;-77
2023/07/16 02:06:58;;;;;;;1.40;1.30;;;;;;;;;;5029901;28;20037;-76
2023/07/16 02:09:25;;;;;;;2.15;1.63;;;;;;;;;;5030033;28;20396;-77
2023/07/16 02:11:51;;;;;;;1.38;1.27;;;;;;;;;;5025757;28;20044;-77
2023/07/16 02:14:17;;;;;;;1.25;1.15;;;;;;;;;;5030007;28;20029;-77
2023/07/16 02:16:43;;;;;;;1.90;1.30;;;;;;;;;;5031917;28;20461;-77
2023/07/16 02:19:09;;;;;;;1.90;1.33;;;;;;;;;;5029889;28;20037;-77
2023/07/16 02:21:35;;;;;;;2.10;1.50;;;;;;;;;;5034411;28;20021;-76
2023/07/16 02:24:00;;;;;;;1.45;1.25;;;;;;;;;;5028242;28;20029;-76
2023/07/16 02:26:26;;;;;;;1.30;1.20;;;;;;;;;;5032436;28;20086;-77
2023/07/16 02:28:52;;;;;;;1.23;0.95;;;;;;;;;;5026116;28;20467;-76
2023/07/16 02:31:18;;;;;;;4.40;1.33;;;;;;;;;;5028041;28;20037;-76
2023/07/16 02:33:44;;;;;;;4.60;1.15;;;;;;;;;;5041654;28;20033;-76
2023/07/16 02:36:10;;;;;;;1.92;1.30;;;;;;;;;;5029698;28;20068;-77
2023/07/16 02:38:36;;;;;;;1.55;1.20;;;;;;;;;;5029484;28;20484;-77
2023/07/16 02:41:02;;;;;;;1.35;1.00;;;;;;;;;;5032954;28;20041;-77
2023/07/16 02:43:28;;;;;;;1.35;0.98;;;;;;;;;;5032608;28;20101;-76
2023/07/16 02:45:54;;;;;;;1.25;1.15;;;;;;;;;;5027498;28;20053;-76
2023/07/16 02:48:20;;;;;;;1.27;1.00;;;;;;;;;;5022329;28;20040;-76
2023/07/16 02:50:46;;;;;;;3.42;1.05;;;;;;;;;;5026317;28;20074;-76
2023/07/16 02:53:12;;;;;;;0.82;0.77;;;;;;;;;;5030778;28;20396;-77
2023/07/16 02:55:38;;;;;;;1.38;1.20;;;;;;;;;;5028391;28;20029;-76
2023/07/16 02:58:04;;;;;;;0.93;0.80;;;;;;;;;;5028270;28;20033;-77
2023/07/16 03:00:33;;;;;;;1.15;0.93;;;;;;;;;;5029281;28;20124;-76
2023/07/16 03:03:00;;;;;;;1.88;1.00;;;;;;;;;;5028839;28;20095;-77
2023/07/16 03:05:27;;;;;;;2.33;1.63;;;;;;;;;;5024120;28;21756;-78
2023/07/16 03:07:53;;;;;;;1.25;0.93;;;;;;;;;;5028706;28;20029;-76
2023/07/16 03:10:19;;;;;;;1.08;1.00;;;;;;;;;;5029508;28;20029;-76
2023/07/16 03:12:45;;;;;;;1.23;0.85;;;;;;;;;;5013207;28;20025;-76
2023/07/16 03:15:11;;;;;;;3.50;1.00;;;;;;;;;;5027760;28;20040;-77
2023/07/16 03:17:36;;;;;;;2.35;1.40;;;;;;;;;;5028773;28;20025;-76
2023/07/16 03:20:05;;;;;;;1.42;1.17;;;;;;;;;;5027798;28;20180;-76
2023/07/16 03:22:31;;;;;;;2.97;1.00;;;;;;;;;;5028954;28;20510;-77
2023/07/16 03:24:57;;;;;;;1.30;1.20;;;;;;;;;;5016202;28;20033;-76
2023/07/16 03:27:23;;;;;;;2.00;1.25;;;;;;;;;;5023673;28;20040;-76
2023/07/16 03:29:49;;;;;;;1.42;1.20;;;;;;;;;;5032489;28;20547;-76
2023/07/16 03:32:15;;;;;;;1.38;1.27;;;;;;;;;;5010378;28;20033;-76
2023/07/16 03:34:40;;;;;;;1.20;1.10;;;;;;;;;;5028756;28;20029;-77
2023/07/16 03:37:06;;;;;;;1.30;1.20;;;;;;;;;;5028401;28;20025;-76
2023/07/16 03:39:32;;;;;;;1.10;0.90;;;;;;;;;;5028196;28;20029;-76
2023/07/16 03:41:58;;;;;;;1.90;1.55;;;;;;;;;;5028112;28;20128;-76
2023/07/16 03:44:24;;;;;;;2.08;1.17;;;;;;;;;;5031832;28;20029;-76
2023/07/16 03:46:50;;;;;;;1.25;1.13;;;;;;;;;;5031901;28;20139;-77
2023/07/16 03:49:16;;;;;;;1.67;1.23;;;;;;;;;;5027444;28;20029;-77
2023/07/16 03:51:42;;;;;;;1.75;1.33;;;;;;;;;;5028657;28;20033;-77
2023/07/16 03:54:08;;;;;;;1.65;1.30;;;;;;;;;;5028246;28;20022;-77
2023/07/16 03:56:34;;;;;;;3.03;1.60;;;;;;;;;;5032606;28;20112;-77
2023/07/16 03:59:00;;;;;;;1.85;1.13;;;;;;;;;;5028070;28;20109;-77
2023/07/16 04:01:26;;;;;;;1.40;1.10;;;;;;;;;;5031265;28;20040;-77
2023/07/16 04:03:52;;;;;;;1.70;1.30;;;;;;;;;;5030619;28;20037;-77
2023/07/16 04:06:18;;;;;;;1.40;1.30;;;;;;;;;;5026027;28;20056;-76
2023/07/16 04:08:44;;;;;;;1.90;1.17;;;;;;;;;;5027495;28;20120;-76
2023/07/16 04:11:10;;;;;;;1.08;0.98;;;;;;;;;;5028430;28;20041;-76
2023/07/16 04:13:36;;;;;;;0.90;0.85;;;;;;;;;;5028240;28;20084;-76
2023/07/16 04:16:02;;;;;;;0.73;0.70;;;;;;;;;;5034739;28;20079;-77
2023/07/16 04:18:28;;;;;;;1.63;1.30;;;;;;;;;;5032388;28;20486;-77
2023/07/16 04:20:54;;;;;;;2.20;1.15;;;;;;;;;;5039998;28;20065;-76
2023/07/16 04:23:21;;;;;;;0.88;0.70;;;;;;;;;;5034693;28;20033;-78
2023/07/16 04:25:46;;;;;;;0.85;0.85;;;;;;;;;;5036474;28;20028;-76
2023/07/16 04:28:13;;;;;;;1.35;1.23;;;;;;;;;;5042712;28;20025;-77
2023/07/16 04:30:39;;;;;;;1.25;1.15;;;;;;;;;;5027581;28;20021;-77
2023/07/16 04:33:05;;;;;;;1.08;0.80;;;;;;;;;;5026190;28;20108;-80
2023/07/16 04:35:31;;;;;;;1.50;1.00;;;;;;;;;;5028142;28;20022;-81
2023/07/16 04:37:57;;;;;;;2.05;1.30;;;;;;;;;;5028445;28;20797;-81
2023/07/16 04:40:23;;;;;;;0.88;0.85;;;;;;;;;;5028028;28;20029;-82
2023/07/16 04:42:49;;;;;;;0.82;0.82;;;;;;;;;;5027854;28;20075;-76
2023/07/16 04:45:15;;;;;;;0.73;0.73;;;;;;;;;;5030480;28;20036;-75
2023/07/16 04:47:41;;;;;;;0.82;0.75;;;;;;;;;;5032482;28;20056;-75
2023/07/16 04:50:07;;;;;;;0.95;0.93;;;;;;;;;;5014865;28;20030;-76
2023/07/16 04:52:33;;;;;;;1.05;0.95;;;;;;;;;;5031922;28;20025;-75
2023/07/16 04:54:59;;;;;;;1.10;1.00;;;;;;;;;;5031065;28;20394;-75
2023/07/16 04:57:25;;;;;;;1.00;0.90;;;;;;;;;;5035039;28;20116;-74
2023/07/16 04:59:51;;;;;;;0.80;0.80;;;;;;;;;;5022466;28;20029;-75
2023/07/16 05:02:17;;;;;;;0.65;0.65;;;;;;;;;;5032710;28;20029;-75
2023/07/16 05:04:44;;;;;;;1.25;0.82;;;;;;;;;;5034264;28;20496;-75
2023/07/16 05:07:10;;;;;;;0.80;0.80;;;;;;;;;;5030069;28;20514;-74
2023/07/16 05:09:36;;;;;;;1.73;0.80;;;;;;;;;;5027949;28;20034;-74
2023/07/16 05:12:02;;;;;;;1.40;1.00;;;;;;;;;;5027329;28;20075;-75
2023/07/16 05:14:29;;;;;;;1.30;1.05;;;;;;;;;;5031785;28;20022;-75
2023/07/16 05:16:55;;;;;;;0.95;0.80;;;;;;;;;;5031443;28;20033;-74
2023/07/16 05:19:21;;;;;;;6.10;2.17;;;;;;;;;;5034922;28;20040;-74
2023/07/16 05:21:47;;;;;;;1.08;0.80;;;;;;;;;;5032796;28;20511;-74
2023/07/16 05:24:13;;;;;;;1.73;0.80;;;;;;;;;;5031278;28;20148;-75
2023/07/16 05:26:40;;;;;;;1.17;0.88;;;;;;;;;;5030587;28;20089;-76
2023/07/16 05:29:05;;;;;;;1.55;1.00;;;;;;;;;;5028167;28;20032;-72
2023/07/16 05:31:31;;;;;;;1.17;1.02;;;;;;;;;;5032345;28;20092;-72
2023/07/16 05:33:57;;;;;;;1.02;0.95;;;;;;;;;;5030693;28;20041;-72
2023/07/16 05:36:23;;;;;;;0.90;0.90;;;;;;;;;;5034456;28;20045;-73
2023/07/16 05:38:49;;;;;;;1.20;1.05;;;;;;;;;;5030594;28;20029;-73
2023/07/16 05:41:15;;;;;;;1.20;0.93;;;;;;;;;;5034604;28;20083;-73
2023/07/16 05:43:41;;;;;;;0.73;0.73;;;;;;;;;;5032233;28;20021;-73
2023/07/16 05:46:07;;;;;;;1.05;0.95;;;;;;;;;;5030270;28;20022;-72
2023/07/16 05:48:33;;;;;;;1.23;1.13;;;;;;;;;;5039310;28;20442;-72
2023/07/16 05:50:59;;;;;;;0.95;0.93;;;;;;;;;;5034407;28;20038;-72
2023/07/16 05:53:25;;;;;;;1.33;1.02;;;;;;;;;;5030402;28;20052;-73
2023/07/16 05:55:51;;;;;;;0.90;0.90;;;;;;;;;;5029805;28;20037;-72
2023/07/16 05:58:17;;;;;;;1.23;1.10;;;;;;;;;;5027675;28;20025;-72
2023/07/16 06:00:43;;;;;;;0.82;0.82;;;;;;;;;;5037613;28;20033;-72
2023/07/16 06:03:09;;;;;;;1.70;1.60;;;;;;;;;;5030852;28;20032;-73
2023/07/16 06:05:36;;;;;;;1.50;1.10;;;;;;;;;;5030376;28;20049;-72
2023/07/16 06:08:08;;;;;;;1.23;1.02;;;;;;;;;;5030098;28;20567;-72
2023/07/16 06:10:35;;;;;;;2.75;1.20;;;;;;;;;;5035207;28;20460;-73
2023/07/16 06:13:01;;;;;;;2.42;1.30;;;;;;;;;;5029905;28;20239;-72
2023/07/16 06:15:27;;;;;;;0.90;0.90;;;;;;;;;;5030414;28;20022;-73
2023/07/16 06:17:53;;;;;;;1.08;0.98;;;;;;;;;;5030051;28;20376;-73
2023/07/16 06:20:19;;;;;;;1.63;1.38;;;;;;;;;;5033856;28;20028;-73
2023/07/16 06:22:45;;;;;;;1.30;1.15;;;;;;;;;;5029930;28;20025;-73
2023/07/16 06:25:12;;;;;;;1.55;1.25;;;;;;;;;;5030146;28;20048;-73
2023/07/16 06:27:38;;;;;;;1.35;1.25;;;;;;;;;;5030131;28;20079;-73
2023/07/16 06:30:05;;;;;;;1.65;1.20;;;;;;;;;;5032111;28;20025;-73
2023/07/16 06:32:31;;;;;;;1.77;1.20;;;;;;;;;;5038968;28;20033;-73
2023/07/16 06:34:57;;;;;;;3.78;1.35;;;;;;;;;;5029809;28;20025;-72
2023/07/16 06:37:23;;;;;;;1.27;1.17;;;;;;;;;;5028145;28;20037;-73
2023/07/16 06:39:50;;;;;;;1.08;0.90;;;;;;;;;;5031182;28;20379;-73
2023/07/16 06:42:16;;;;;;;1.20;1.02;;;;;;;;;;5029865;28;20757;-73
2023/07/16 06:44:41;;;;;;;1.45;1.27;;;;;;;;;;5029603;28;20017;-73
2023/07/16 06:47:08;;;;;;;1.05;0.98;;;;;;;;;;5029695;28;20397;-73
2023/07/16 06:49:34;;;;;;;1.10;1.00;;;;;;;;;;5037613;28;20060;-73
2023/07/16 06:52:03;;;;;;;1.15;1.05;;;;;;;;;;5029582;28;20038;-72
2023/07/16 06:54:29;;;;;;;2.45;1.23;;;;;;;;;;5030049;28;20096;-74
2023/07/16 06:56:55;;;;;;;1.88;1.30;;;;;;;;;;5035840;28;20040;-73
2023/07/16 06:59:21;;;;;;;1.95;1.67;;;;;;;;;;5031308;28;20033;-73
2023/07/16 07:01:47;;;;;;;1.52;1.33;;;;;;;;;;5029790;28;20116;-73
2023/07/16 07:04:13;;;;;;;1.30;1.10;;;;;;;;;;5032376;28;20079;-73
2023/07/16 07:06:39;;;;;;;1.60;1.27;;;;;;;;;;5028646;28;20050;-73
2023/07/16 07:09:05;;;;;;;3.20;1.50;;;;;;;;;;5029294;28;20017;-73
2023/07/16 07:11:31;;;;;;;2.05;1.65;;;;;;;;;;5029635;28;20025;-73
2023/07/16 07:13:57;;;;;;;1.42;1.23;;;;;;;;;;5029644;28;20033;-73
2023/07/16 07:16:24;;;;;;;1.15;1.05;;;;;;;;;;5040742;28;20082;-73
2023/07/16 07:18:50;;;;;;;1.83;1.33;;;;;;;;;;5037953;28;20045;-73
2023/07/16 07:21:16;;;;;;;1.73;1.17;;;;;;;;;;5029425;28;20468;-73
2023/07/16 07:23:42;;;;;;;1.52;1.00;;;;;;;;;;5036286;28;20025;-73
2023/07/16 07:26:08;;;;;;;1.30;1.20;;;;;;;;;;5029214;28;20112;-73
2023/07/16 07:28:34;;;;;;;3.17;1.20;;;;;;;;;;5029291;28;20029;-73
2023/07/16 07:31:00;;;;;;;1.40;1.20;;;;;;;;;;5028933;28;20028;-72
2023/07/16 07:33:26;;;;;;;1.58;1.30;;;;;;;;;;5031672;28;20055;-73
2023/07/16 07:35:55;;;;;;;1.52;1.30;;;;;;;;;;5028996;28;20024;-73
2023/07/16 07:38:21;;;;;;;1.00;0.90;;;;;;;;;;5028996;28;20021;-73
2023/07/16 07:40:47;;;;;;;1.75;1.30;;;;;;;;;;5035042;28;20033;-73
2023/07/16 07:43:13;;;;;;;1.27;1.00;;;;;;;;;;5030026;28;20025;-73
2023/07/16 07:45:39;;;;;;;1.50;0.85;;;;;;;;;;5029007;28;20440;-73
2023/07/16 07:48:05;;;;;;;1.23;1.00;;;;;;;;;;5037154;28;20033;-73
2023/07/16 07:50:31;;;;;;;1.48;1.05;;;;;;;;;;5028928;28;20029;-73
2023/07/16 07:52:56;;;;;;;0.77;0.77;;;;;;;;;;5028554;28;20685;-74
2023/07/16 07:55:22;;;;;;;0.90;0.80;;;;;;;;;;5028603;28;20439;-72
2023/07/16 07:57:48;;;;;;;1.30;0.98;;;;;;;;;;5026761;28;20029;-73
2023/07/16 08:00:14;;;;;;;1.13;1.02;;;;;;;;;;5046479;28;20029;-73
2023/07/16 08:02:40;;;;;;;1.52;0.93;;;;;;;;;;5029500;28;20040;-73
2023/07/16 08:05:07;;;;;;;0.80;0.80;;;;;;;;;;5028356;28;20041;-73
2023/07/16 08:07:33;;;;;;;1.15;0.73;;;;;;;;;;5028753;28;20052;-73
2023/07/16 08:09:59;;;;;;;0.98;0.90;;;;;;;;;;5027818;28;20033;-73
2023/07/16 08:12:27;;;;;;;1.45;1.25;;;;;;;;;;5028413;28;20025;-73
2023/07/16 08:14:53;;;;;;;1.27;1.17;;;;;;;;;;5028379;28;20420;-74
2023/07/16 08:17:19;;;;;;;1.15;0.98;;;;;;;;;;5039274;28;20029;-73
2023/07/16 08:19:45;;;;;;;1.73;1.10;;;;;;;;;;5028313;28;20030;-72
2023/07/16 08:22:11;;;;;;;1.95;1.00;;;;;;;;;;5028101;28;20399;-73
2023/07/16 08:24:37;;;;;;;0.95;0.82;;;;;;;;;;5028425;28;20484;-73
2023/07/16 08:27:04;;;;;;;3.22;1.33;;;;;;;;;;5031344;28;20079;-73
2023/07/16 08:29:29;;;;;;;1.13;0.90;;;;;;;;;;5028512;28;20095;-73
2023/07/16 08:31:56;;;;;;;0.82;0.82;;;;;;;;;;5035028;28;20336;-72
2023/07/16 08:34:22;;;;;;;1.20;1.10;;;;;;;;;;5034679;28;20534;-72
2023/07/16 08:36:48;;;;;;;0.90;0.80;;;;;;;;;;5028365;28;20022;-73
2023/07/16 08:39:14;;;;;;;1.63;1.05;;;;;;;;;;5028092;28;20028;-73
2023/07/16 08:41:40;;;;;;;1.13;1.00;;;;;;;;;;5031792;28;20096;-73
2023/07/16 08:44:06;;;;;;;1.60;1.27;;;;;;;;;;5034465;28;20033;-73
2023/07/16 08:46:33;;;;;;;1.30;1.08;;;;;;;;;;5040148;28;20405;-73
2023/07/16 08:49:00;;;;;;;0.65;0.65;;;;;;;;;;5028133;28;20033;-73
2023/07/16 08:51:26;;;;;;;0.70;0.70;;;;;;;;;;5028205;28;20030;-74
2023/07/16 08:53:52;;;;;;;0.80;0.80;;;;;;;;;;5027936;28;20075;-72
2023/07/16 08:56:18;;;;;;;1.25;1.02;;;;;;;;;;5030743;28;20025;-72
2023/07/16 08:58:45;;;;;;;2.22;1.40;;;;;;;;;;5030089;28;20022;-73
2023/07/16 09:01:11;;;;;;;1.00;0.98;;;;;;;;;;5027921;28;20024;-73
2023/07/16 09:03:37;;;;;;;1.50;0.80;;;;;;;;;;5028250;28;20056;-73
2023/07/16 09:06:04;;;;;;;0.90;0.90;;;;;;;;;;5029808;28;20167;-72
2023/07/16 09:08:30;;;;;;;0.80;0.80;;;;;;;;;;5038828;28;20032;-73
2023/07/16 09:10:56;;;;;;;1.65;1.23;;;;;;;;;;5027994;28;20033;-73
2023/07/16 09:13:26;;;;;;;1.27;1.00;;;;;;;;;;5027625;28;20037;-72
2023/07/16 09:15:52;;;;;;;1.65;1.10;;;;;;;;;;5028823;28;20037;-73
2023/07/16 09:18:22;;;;;;;1.65;1.10;;;;;;;;;;5033586;28;20017;-73
2023/07/16 09:20:48;;;;;;;1.27;1.13;;;;;;;;;;5028050;28;20049;-73
2023/07/16 09:23:16;;;;;;;3.00;1.33;;;;;;;;;;5027715;28;20026;-73
2023/07/16 09:25:44;;;;;;;1.25;1.15;;;;;;;;;;5028874;28;20035;-73
2023/07/16 09:28:10;;;;;;;1.40;1.00;;;;;;;;;;5032006;28;20043;-72
2023/07/16 09:30:36;;;;;;;1.40;1.10;;;;;;;;;;5029232;28;20029;-73
2023/07/16 09:33:15;;;;;;;3.17;1.13;;;;;;;;;;5036082;28;20072;-72
2023/07/16 09:35:41;;;;;;;0.77;0.77;;;;;;;;;;5021792;28;20033;-73
2023/07/16 09:38:09;;;;;;;0.70;0.70;;;;;;;;;;5031152;28;20021;-72
2023/07/16 09:40:35;;;;;;;0.80;0.80;;;;;;;;;;5031442;28;20022;-73
2023/07/16 09:43:01;;;;;;;1.17;1.00;;;;;;;;;;5030873;28;20530;-73
2023/07/16 09:45:27;;;;;;;0.98;0.73;;;;;;;;;;5017694;28;20439;-73
2023/07/16 09:47:53;;;;;;;1.40;0.73;;;;;;;;;;5036321;28;20040;-73
2023/07/16 09:50:19;;;;;;;0.80;0.80;;;;;;;;;;5039850;28;20234;-73
2023/07/16 09:52:47;;;;;;;1.08;0.98;;;;;;;;;;5030870;28;20034;-73
2023/07/16 09:55:15;;;;;;;1.10;1.00;;;;;;;;;;5030719;28;20100;-73
2023/07/16 09:57:42;;;;;;;1.85;1.20;;;;;;;;;;5030824;28;20025;-73
2023/07/16 10:00:12;;;;;;;1.70;1.10;;;;;;;;;;5040025;28;20044;-74
2023/07/16 10:02:38;;;;;;;1.35;1.13;;;;;;;;;;5032425;28;20030;-73
2023/07/16 10:05:24;;;;;;;1.08;0.88;;;;;;;;;;5030292;28;20061;-73
2023/07/16 10:07:59;;;;;;;1.17;0.90;;;;;;;;;;5030808;28;20056;-73
2023/07/16 10:10:39;;;;;;;1.27;0.98;;;;;;;;;;5036907;28;20025;-72
2023/07/16 10:13:05;;;;;;;0.70;0.70;;;;;;;;;;5028398;28;20391;-73
2023/07/16 10:15:31;;;;;;;0.63;0.63;;;;;;;;;;5035936;28;20018;-74
2023/07/16 10:17:57;;;;;;;4.63;1.20;;;;;;;;;;5030636;28;20033;-73
2023/07/16 10:20:29;;;;;;;0.73;0.73;;;;;;;;;;5030429;28;20021;-73
2023/07/16 10:22:55;;;;;;;1.10;1.00;;;;;;;;;;5030667;28;20034;-73
2023/07/16 10:25:20;;;;;;;1.35;1.10;;;;;;;;;;5028173;28;20108;-72
2023/07/16 10:27:48;;;;;;;0.80;0.80;;;;;;;;;;5033308;28;20037;-73
2023/07/16 10:30:14;;;;;;;1.23;0.98;;;;;;;;;;5030316;28;20029;-73
2023/07/16 10:32:40;;;;;;;1.70;1.20;;;;;;;;;;5030210;28;20374;-72
2023/07/16 10:35:08;;;;;;;0.80;0.70;;;;;;;;;;5029335;28;20022;-73
2023/07/16 10:37:34;;;;;;;0.70;0.70;;;;;;;;;;5037707;28;20048;-73
2023/07/16 10:40:01;;;;;;;0.60;0.60;;;;;;;;;;5029950;28;20048;-73
2023/07/16 10:42:27;;;;;;;1.63;1.00;;;;;;;;;;5030179;28;20026;-72
2023/07/16 10:44:55;;;;;;;1.08;0.98;;;;;;;;;;5029967;28;20033;-73
2023/07/16 10:47:25;;;;;;;0.73;0.73;;;;;;;;;;5028781;28;20048;-72
2023/07/16 10:49:52;;;;;;;0.93;0.82;;;;;;;;;;5040439;28;20475;-73
2023/07/16 10:52:18;;;;;;;0.70;0.68;;;;;;;;;;5036223;28;20037;-73
2023/07/16 10:54:44;;;;;;;1.02;0.93;;;;;;;;;;5029743;28;20116;-73
2023/07/16 10:57:12;;;;;;;0.93;0.90;;;;;;;;;;5029510;28;20173;-73
2023/07/16 10:59:41;;;;;;;1.38;0.82;;;;;;;;;;5029135;28;20025;-73
2023/07/16 11:02:14;;;;;;;1.85;0.90;;;;;;;;;;5043459;28;20021;-73
2023/07/16 11:04:40;;;;;;;0.98;0.90;;;;;;;;;;5029509;28;20194;-73
2023/07/16 11:07:11;;;;;;;0.90;0.85;;;;;;;;;;5029540;28;20387;-73
2023/07/16 11:09:37;;;;;;;;;;;;;;;;;;5029866;28;20546;-74
2023/07/16 11:12:09;;;;;;;1.00;0.80;;;;;;;;;;5037374;28;20004;-73
2023/07/16 11:14:35;;;;;;;1.10;0.80;;;;;;;;;;5031383;28;20041;-73
2023/07/16 11:17:08;;;;;;;0.80;0.80;;;;;;;;;;5040098;28;20695;-73
2023/07/16 11:19:34;;;;;;;1.83;1.00;;;;;;;;;;5029644;28;20032;-73
2023/07/16 11:22:01;;;;;;;0.70;0.70;;;;;;;;;;5029123;28;20029;-73
2023/07/16 11:24:28;;;;;;;1.00;0.90;;;;;;;;;;5029358;28;20021;-73
2023/07/16 11:27:00;;;;;;;1.05;0.95;;;;;;;;;;5034185;28;20095;-73
2023/07/16 11:29:26;;;;;;;1.70;1.20;;;;;;;;;;5036640;28;20029;-72
2023/07/16 11:31:53;;;;;;;1.05;0.95;;;;;;;;;;5029092;28;20024;-73
2023/07/16 11:34:22;;;;;;;0.95;0.85;;;;;;;;;;5037568;28;20033;-73
2023/07/16 11:36:49;;;;;;;1.52;0.82;;;;;;;;;;5029465;28;20066;-73
2023/07/16 11:39:15;;;;;;;1.00;0.95;;;;;;;;;;5028996;28;20033;-72
2023/07/16 11:41:41;;;;;;;1.17;1.05;;;;;;;;;;5028914;28;20102;-72
2023/07/16 11:44:09;;;;;;;0.73;0.70;;;;;;;;;;5040062;28;20032;-72
2023/07/16 11:46:35;;;;;;;2.15;0.90;;;;;;;;;;5029191;28;20048;-72
2023/07/16 11:49:01;;;;;;;0.70;0.70;;;;;;;;;;5028789;28;20021;-72
2023/07/16 11:51:27;;;;;;;0.95;0.80;;;;;;;;;;5028966;28;20108;-72
2023/07/16 11:53:57;;;;;;;0.80;0.80;;;;;;;;;;5031708;28;20411;-72
2023/07/16 11:56:23;;;;;;;1.00;0.90;;;;;;;;;;5028566;28;20376;-72
2023/07/16 11:58:49;;;;;;;1.00;0.90;;;;;;;;;;5030401;28;20108;-72
2023/07/16 12:01:16;;;;;;;1.05;0.88;;;;;;;;;;5031603;28;20029;-72
2023/07/16 12:03:41;;;;;;;2.50;1.25;;;;;;;;;;5038264;28;20439;-73
2023/07/16 12:06:09;;;;;;;1.50;1.05;;;;;;;;;;5041074;28;20053;-72
2023/07/16 12:08:35;;;;;;;1.85;0.98;;;;;;;;;;5028624;28;20021;-72
2023/07/16 12:11:01;;;;;;;1.17;1.08;;;;;;;;;;5035312;28;20139;-73
2023/07/16 12:13:26;;;;;;;1.05;0.90;;;;;;;;;;5030525;28;20065;-73
2023/07/16 12:15:53;;;;;;;1.42;1.00;;;;;;;;;;5028640;28;20022;-72
2023/07/16 12:18:19;;;;;;;2.08;0.82;;;;;;;;;;5028346;28;20025;-73
2023/07/16 12:20:45;;;;;;;1.15;1.05;;;;;;;;;;5010753;28;20033;-73
2023/07/16 12:23:10;;;;;;;0.80;0.80;;;;;;;;;;5036163;28;20043;-72
2023/07/16 12:25:36;;;;;;;0.70;0.70;;;;;;;;;;5028716;28;20084;-73
2023/07/16 12:28:03;;;;;;;1.00;0.90;;;;;;;;;;5028399;28;20036;-72
2023/07/16 12:30:29;;;;;;;1.05;0.95;;;;;;;;;;5028480;28;20079;-72
2023/07/16 12:32:55;;;;;;;0.82;0.75;;;;;;;;;;5036878;28;20064;-72
2023/07/16 12:35:21;;;;;;;0.90;0.90;;;;;;;;;;5027941;28;20026;-73
2023/07/16 12:37:46;;;;;;;0.90;0.80;;;;;;;;;;5028333;28;20036;-73
2023/07/16 12:40:12;;;;;;;1.05;0.90;;;;;;;;;;5027929;28;20022;-72
2023/07/16 12:42:38;;;;;;;0.80;0.80;;;;;;;;;;5029040;28;20055;-72
2023/07/16 12:45:05;;;;;;;0.70;0.70;;;;;;;;;;5028267;28;20052;-73
2023/07/16 12:47:31;;;;;;;0.93;0.90;;;;;;;;;;5028095;28;20069;-72
2023/07/16 12:50:00;;;;;;;0.77;0.77;;;;;;;;;;5028428;28;20049;-73
2023/07/16 12:52:26;;;;;;;1.17;1.05;;;;;;;;;;5027974;28;20033;-72
2023/07/16 12:54:52;;;;;;;0.70;0.70;;;;;;;;;;5028566;28;20180;-72
2023/07/16 12:57:18;;;;;;;0.80;0.80;;;;;;;;;;5028220;28;20029;-72
2023/07/16 12:59:46;;;;;;;0.75;0.75;;;;;;;;;;5027966;28;20028;-72
2023/07/16 13:02:12;;;;;;;1.65;0.90;;;;;;;;;;5027932;28;20097;-73
2023/07/16 13:04:38;;;;;;;1.23;0.80;;;;;;;;;;5033257;28;20021;-73
2023/07/16 13:07:08;;;;;;;1.00;0.90;;;;;;;;;;5018327;28;20032;-72
2023/07/16 13:09:34;;;;;;;0.85;0.80;;;;;;;;;;5033681;28;20032;-73
2023/07/16 13:12:00;;;;;;;0.75;0.75;;;;;;;;;;5035881;28;20021;-72
2023/07/16 13:14:26;;;;;;;2.42;0.80;;;;;;;;;;5031968;28;20029;-72
2023/07/16 13:16:52;;;;;;;1.63;0.70;;;;;;;;;;5033419;28;20029;-73
2023/07/16 13:19:18;;;;;;;0.68;0.68;;;;;;;;;;5040920;28;20499;-72
2023/07/16 13:21:44;;;;;;;0.60;0.60;;;;;;;;;;5031475;28;20071;-73
2023/07/16 13:24:11;;;;;;;0.75;0.75;;;;;;;;;;5031523;28;20482;-73
2023/07/16 13:26:43;;;;;;;1.38;0.95;;;;;;;;;;5032139;28;20610;-73
2023/07/16 13:29:09;;;;;;;1.60;1.00;;;;;;;;;;5022139;28;20561;-72
2023/07/16 13:31:35;;;;;;;0.85;0.85;;;;;;;;;;5013742;28;20388;-72
2023/07/16 13:34:01;;;;;;;2.10;0.80;;;;;;;;;;5031239;28;20243;-73
2023/07/16 13:36:27;;;;;;;0.70;0.70;;;;;;;;;;5031380;28;20021;-73
2023/07/16 13:38:52;;;;;;;0.98;0.90;;;;;;;;;;5035351;28;20032;-73
2023/07/16 13:41:18;;;;;;;0.82;0.82;;;;;;;;;;5031140;28;20032;-73
2023/07/16 13:43:44;;;;;;;0.80;0.80;;;;;;;;;;5029886;28;21768;-73
2023/07/16 13:46:10;;;;;;;1.30;0.80;;;;;;;;;;5029603;28;20395;-73
2023/07/16 13:48:36;;;;;;;0.60;0.60;;;;;;;;;;5030791;28;20063;-75
2023/07/16 13:51:02;;;;;;;0.57;0.57;;;;;;;;;;5031201;28;20028;-73
2023/07/16 13:53:28;;;;;;;1.38;0.95;;;;;;;;;;5032813;28;20033;-73
2023/07/16 13:55:54;;;;;;;1.23;0.82;;;;;;;;;;5026804;28;20025;-73
2023/07/16 13:58:20;;;;;;;0.70;0.70;;;;;;;;;;5030867;28;20026;-73
2023/07/16 14:00:46;;;;;;;0.95;0.93;;;;;;;;;;5031179;28;20072;-72
2023/07/16 14:03:12;;;;;;;1.05;0.95;;;;;;;;;;5025480;28;20034;-73
2023/07/16 14:05:40;;;;;;;0.90;0.70;;;;;;;;;;5029353;28;20076;-73
2023/07/16 14:08:06;;;;;;;0.75;0.75;;;;;;;;;;5037365;28;20021;-73
2023/07/16 14:10:32;;;;;;;0.80;0.80;;;;;;;;;;5022580;28;20120;-76
2023/07/16 14:12:58;;;;;;;1.13;1.02;;;;;;;;;;5029156;28;20029;-75
2023/07/16 14:15:36;;;;;;;3.47;1.58;;;;;;;;;;5030534;28;20026;-73
2023/07/16 14:18:03;;;;;;;1.83;0.93;;;;;;;;;;5032784;28;20025;-75
2023/07/16 14:20:29;;;;;;;1.30;0.90;;;;;;;;;;5031258;28;20018;-75
2023/07/16 14:22:55;;;;;;;1.30;0.90;;;;;;;;;;5032281;28;20033;-75
2023/07/16 14:25:21;;;;;;;1.33;0.70;;;;;;;;;;5030310;28;20025;-72
2023/07/16 14:27:48;;;;;;;2.67;0.82;;;;;;;;;;5032741;28;20029;-77
2023/07/16 14:30:14;;;;;;;0.75;0.73;;;;;;;;;;5025979;28;20061;-75
2023/07/16 14:32:40;;;;;;;1.02;0.82;;;;;;;;;;5025207;28;20032;-78
2023/07/16 14:35:12;;;;;;;1.35;0.93;;;;;;;;;;5025309;28;20032;-79
2023/07/16 14:37:38;;;;;;;0.95;0.85;;;;;;;;;;5020668;28;20033;-74
2023/07/16 14:40:07;;;;;;;1.30;1.00;;;;;;;;;;5027880;28;20041;-76